createdAt,value
2022-12-09T00:02:30.427Z,15.10
2022-12-09T00:12:33.450Z,13.87
2022-12-09T00:22:35.915Z,14.43
2022-12-09T00:32:38.554Z,13.20
2022-12-09T00:42:41.330Z,14.23
2022-12-09T00:52:43.850Z,14.53
2022-12-09T01:02:46.467Z,14.07
2022-12-09T01:12:49.022Z,13.57
2022-12-09T01:22:51.505Z,16.87
2022-12-09T01:32:53.949Z,15.47
2022-12-09T01:42:56.531Z,16.30
2022-12-09T01:52:59.492Z,15.60
2022-12-09T02:03:02.795Z,15.50
2022-12-09T02:13:24.345Z,16.20
2022-12-09T02:23:40.620Z,15.47
2022-12-09T02:34:04.910Z,13.17
2022-12-09T02:44:15.966Z,11.97
2022-12-09T02:54:19.746Z,14.23
2022-12-09T03:04:27.135Z,12.30
2022-12-09T03:14:38.392Z,14.40
2022-12-09T03:24:43.699Z,13.20
2022-12-09T03:34:51.154Z,14.80
2022-12-09T03:45:04.293Z,16.30
2022-12-09T03:55:30.165Z,13.83
2022-12-09T04:05:32.709Z,13.88
2022-12-09T04:15:35.285Z,14.80
2022-12-09T04:25:38.283Z,14.87
2022-12-09T04:35:40.762Z,15.13
2022-12-09T04:45:43.307Z,15.73
2022-12-09T04:55:46.169Z,16.40
2022-12-09T05:05:49.304Z,15.90
2022-12-09T05:15:51.972Z,16.20
2022-12-09T05:25:56.074Z,15.67
2022-12-09T05:35:58.992Z,14.90
2022-12-09T05:46:02.749Z,13.07
2022-12-09T05:56:06.189Z,12.47
2022-12-09T06:06:11.876Z,13.43
2022-12-09T06:16:17.711Z,14.40
2022-12-09T06:26:30.756Z,15.23
2022-12-09T06:36:33.871Z,16.83
2022-12-09T06:46:37.578Z,14.17
2022-12-09T06:56:40.639Z,16.53
2022-12-09T07:06:45.289Z,15.83
2022-12-09T07:16:48.974Z,14.63
2022-12-09T07:26:52.664Z,15.70
2022-12-09T07:36:56.065Z,15.67
2022-12-09T07:46:59.390Z,17.20
2022-12-09T07:57:03.015Z,15.90
2022-12-09T08:07:06.395Z,16.00
2022-12-09T08:17:09.672Z,13.07
2022-12-09T08:27:12.690Z,12.20
2022-12-09T08:37:15.859Z,13.77
2022-12-09T08:47:19.135Z,11.73
2022-12-09T08:57:26.275Z,12.63
2022-12-09T09:07:31.051Z,11.70
2022-12-09T09:17:34.049Z,12.00
2022-12-09T09:27:37.290Z,11.40
2022-12-09T09:37:40.353Z,12.83
2022-12-09T09:47:48.687Z,12.43
2022-12-09T09:57:56.901Z,12.97
2022-12-09T10:08:31.409Z,11.97
2022-12-09T10:18:43.379Z,11.30
2022-12-09T10:28:51.514Z,12.13
2022-12-09T10:39:01.642Z,12.30
2022-12-09T10:49:05.672Z,13.40
2022-12-09T10:59:10.573Z,11.87
2022-12-09T11:09:26.089Z,10.97
2022-12-09T11:19:32.521Z,10.27
2022-12-09T11:29:35.106Z,12.47
2022-12-09T11:39:39.233Z,13.23
2022-12-09T11:49:51.533Z,12.73
2022-12-09T12:00:02.520Z,12.73
2022-12-09T12:10:13.538Z,11.93
2022-12-09T12:20:16.703Z,10.27
2022-12-09T12:30:24.446Z,10.30
2022-12-09T12:40:44.046Z,10.70
2022-12-09T12:50:55.672Z,9.13
2022-12-09T13:01:13.584Z,8.70
2022-12-09T13:11:25.968Z,10.03
2022-12-09T13:21:28.986Z,9.83
2022-12-09T13:31:35.806Z,10.50
2022-12-09T13:42:00.407Z,10.27
2022-12-09T13:52:03.476Z,9.87
2022-12-09T14:02:43.443Z,10.40
2022-12-09T14:12:51.872Z,9.63
2022-12-09T14:23:12.272Z,9.13
2022-12-09T14:33:35.740Z,12.50
2022-12-09T14:44:04.172Z,9.60
2022-12-09T14:54:22.895Z,9.03
2022-12-09T15:04:35.562Z,9.20
2022-12-09T15:14:41.082Z,8.93
2022-12-09T15:24:50.181Z,8.43
2022-12-09T15:34:54.876Z,9.23
2022-12-09T15:45:14.819Z,9.87
2022-12-09T15:55:22.458Z,11.77
2022-12-09T16:05:26.409Z,11.20
2022-12-09T16:15:47.943Z,12.47
2022-12-09T16:25:51.189Z,11.10
2022-12-09T16:36:06.612Z,11.90
2022-12-09T16:56:20.418Z,11.23
2022-12-09T17:06:22.974Z,12.23
2022-12-09T17:16:27.125Z,12.80
2022-12-09T17:26:29.820Z,12.50
2022-12-09T17:36:34.909Z,13.23
2022-12-09T17:56:39.905Z,13.33
2022-12-09T18:06:45.620Z,13.97
2022-12-09T18:16:49.735Z,14.07
2022-12-09T18:26:52.611Z,13.63
2022-12-09T18:36:55.710Z,13.97
2022-12-09T18:46:58.331Z,14.10
2022-12-09T18:57:04.302Z,12.57
2022-12-09T19:07:06.944Z,13.53
2022-12-09T19:17:09.883Z,13.20
2022-12-09T19:27:13.919Z,13.20
2022-12-09T19:37:16.679Z,12.77
2022-12-09T19:47:19.228Z,13.37
2022-12-09T19:57:22.968Z,14.70
2022-12-09T20:07:25.827Z,14.10
2022-12-09T20:17:28.711Z,14.80
2022-12-09T20:27:31.350Z,14.87
2022-12-09T20:37:33.874Z,13.30
2022-12-09T20:47:36.728Z,15.90
2022-12-09T20:57:39.812Z,14.73
2022-12-09T21:07:42.903Z,15.07
2022-12-09T21:17:49.684Z,15.03
2022-12-09T21:27:52.529Z,14.60
2022-12-09T21:37:56.317Z,14.40
2022-12-09T21:47:58.924Z,15.23
2022-12-09T21:58:01.560Z,13.40
2022-12-09T22:08:04.767Z,12.87
2022-12-09T22:18:07.306Z,14.90
2022-12-09T22:28:09.927Z,14.20
2022-12-09T22:38:14.686Z,14.53
2022-12-09T22:48:17.817Z,15.82
2022-12-09T22:58:20.375Z,15.17
2022-12-09T23:08:23.054Z,16.20
2022-12-09T23:18:25.436Z,16.83
2022-12-09T23:28:27.867Z,16.33
2022-12-09T23:38:30.227Z,17.00
2022-12-09T23:48:33.279Z,17.10
2022-12-09T23:58:35.873Z,18.87
